Latest Weather Observations for Moss Vale

IDN60801

Issued at 1:03 pm EDT Saturday 21 January 2017 (issued every 30 minutes, with the page automatically refreshed every 10 minutes)

About weather observations | Map of weather stations | Latest weather observations for NSW | Other Formats
Station Details ID: 068239 Name: MOSS VALE AWS Lat: -34.53 Lon: 150.42 Height: 678.4 m
Data from the previous 72 hours. | See also: Recent months at Moss Vale
Date/Time
EDT
Temp
°C
App
Temp
°C
Dew
Point
°C
Rel
Hum
%
Delta-T
°C
Wind Press
QNH
hPa
Press
MSL
hPa
Rain since
9am
mm
Dir  Spd
km/h
Gust
km/h
Spd
kts
Gust
kts
21/12:30pm 22.7 19.6 7.3 37 8.3 SSW 13 19 7 10 1013.4 1010.2 0.0
21/12:00pm 22.3 20.0 9.1 43 7.3 ENE 11 17 6 9 1013.2 1010.0 0.0
21/11:30am 21.1 19.0 8.4 44 6.9 NW 9 15 5 8 1013.3 1010.1 0.0
21/11:00am 20.7 18.6 9.6 49 6.1 SSW 11 22 6 12 1013.0 1009.9 0.0
21/10:30am 20.0 18.2 9.6 51 5.7 SE 9 15 5 8 1013.2 1010.0 0.0
21/10:00am 18.4 15.9 8.4 52 5.3 S 11 17 6 9 1012.9 1009.8 0.0
21/09:30am 18.0 16.7 9.1 56 4.8 SE 6 13 3 7 1012.5 1009.4 0.0
21/09:00am 17.2 14.9 8.9 58 4.4 S 11 15 6 8 1012.4 1009.3 9.4
21/08:30am 16.5 13.4 7.4 55 4.7 S 13 19 7 10 1012.2 1009.0 9.4
21/08:00am 15.7 13.5 8.0 60 4.0 S 9 13 5 7 1011.8 1008.6 9.4
21/07:30am 14.3 12.1 7.8 65 3.3 SW 9 11 5 6 1011.2 1008.1 9.4
21/07:00am 12.9 11.0 9.0 77 2.0 S 9 11 5 6 1010.6 1007.4 9.4
21/06:30am 12.1 10.3 8.0 76 2.1 SW 7 9 4 5 1010.2 1007.0 9.4
21/06:00am 12.3 10.6 8.4 77 2.0 SW 7 9 4 5 1009.7 1006.6 9.4
21/05:30am 12.3 10.2 8.4 77 2.0 SW 9 11 5 6 1009.2 1006.0 9.4
21/05:00am 12.1 9.9 8.0 76 2.1 S 9 13 5 7 1008.5 1005.3 9.4
21/04:30am 13.8 12.0 8.0 68 3.0 SE 7 9 4 5 1007.9 1004.7 9.4
21/04:00am 14.1 12.0 8.1 67 3.1 SE 9 13 5 7 1007.9 1004.7 9.4
21/03:30am 14.6 11.9 8.8 68 3.0 SSE 13 17 7 9 1007.7 1004.5 9.4
21/03:00am 15.1 12.3 9.9 71 2.8 SSE 15 19 8 10 1007.4 1004.2 9.4
21/02:30am 15.6 12.9 10.4 71 2.8 SE 15 19 8 10 1007.1 1003.9 9.4
21/02:00am 15.9 13.8 11.3 74 2.6 SE 13 20 7 11 1006.7 1003.5 9.4
21/01:30am 16.1 14.5 12.7 80 1.9 SE 13 17 7 9 1006.3 1003.1 9.4
21/01:06am 16.2 14.8 13.5 84 1.6 SE 13 15 7 8 1006.1 1002.9 9.4
21/01:00am 16.3 15.3 14.7 90 1.0 SE 13 17 7 9 1006.0 1002.8 9.4
21/12:35am 16.8 16.7 16.0 95 0.5 ESE 11 19 6 10 1005.6 1002.3 9.4
21/12:30am 17.0 17.1 16.4 96 0.4 SE 11 15 6 8 1005.5 1002.2 9.4
21/12:14am 17.0 17.5 16.5 97 0.3 SE 9 13 5 7 1005.3 1002.0 9.4
21/12:00am 17.1 17.7 16.9 99 0.1 SE 9 13 5 7 1005.1 1001.9 9.4
 
Date/Time
EDT
Temp
°C
App
Temp
°C
Dew
Point
°C
Rel
Hum
%
Delta-T
°C
Wind Press
QNH
hPa
Press
MSL
hPa
Rain since
9am
mm
Dir  Spd
km/h
Gust
km/h
Spd
kts
Gust
kts
20/11:30pm 17.1 17.1 17.1 100 0.0 SE 13 17 7 9 1004.7 1001.5 9.4
20/11:00pm 17.3 16.6 17.3 100 0.0 SE 17 22 9 12 1004.2 1000.9 9.4
20/10:30pm 17.4 16.7 17.4 100 0.0 SE 17 22 9 12 1003.6 1000.4 9.4
20/10:00pm 18.0 17.2 18.0 100 0.0 SE 19 26 10 14 1003.0 999.7 9.4
20/09:30pm 18.8 18.2 18.5 98 0.2 SSE 19 28 10 15 1002.3 999.0 9.4
20/09:13pm 19.1 17.9 18.4 96 0.4 SSE 22 32 12 17 1001.8 998.6 9.4
20/09:00pm 19.5 18.6 18.3 93 0.8 SSE 20 28 11 15 1001.5 998.2 9.4
20/08:30pm 21.6 19.9 16.3 72 3.3 SSW 20 26 11 14 1000.4 997.2 9.4
20/08:00pm 22.3 20.0 16.6 70 3.6 WSW 24 35 13 19 998.6 995.3 9.4
20/07:30pm 23.4 21.5 17.6 70 3.7 WSW 24 32 13 17 998.4 995.1 9.4
20/07:02pm 23.5 20.8 18.4 73 3.3 WSW 30 48 16 26 997.6 994.2 9.4
20/07:00pm 23.5 20.3 18.6 74 3.2 WSW 33 48 18 26 997.5 994.1 9.4
20/06:32pm 22.5 20.4 20.6 89 1.3 WSW 32 50 17 27 997.6 994.2 9.4
20/06:30pm 22.5 20.3 20.8 90 1.1 WSW 33 50 18 27 997.6 994.2 9.4
20/06:22pm 22.5 20.5 20.8 90 1.1 WSW 32 46 17 25 997.5 994.1 9.4
20/06:13pm 22.1 21.4 21.8 98 0.2 WSW 28 39 15 21 997.6 994.2 9.4
20/06:00pm 22.1 - - - - WSW 26 37 14 20 997.5 994.1 9.4
20/05:49pm 22.2 21.3 22.1 99 0.1 WSW 30 41 16 22 997.2 993.9 9.4
20/05:30pm 22.4 22.3 22.2 99 0.1 WSW 26 37 14 20 996.5 993.2 5.4
20/05:07pm 23.5 22.1 21.2 87 1.6 WSW 30 44 16 24 996.3 992.9 3.8
20/05:00pm 24.4 22.7 21.3 83 2.1 WSW 32 52 17 28 996.2 992.8 3.8
20/04:55pm 24.5 22.5 20.8 80 2.5 WSW 32 52 17 28 996.0 992.6 3.8
20/04:35pm 24.1 23.0 22.4 90 1.2 WSW 32 48 17 26 996.3 992.9 3.8
20/04:30pm 23.4 22.3 22.4 94 0.7 WSW 32 50 17 27 996.4 993.0 3.8
20/04:00pm 23.0 19.0 19.4 80 2.4 WSW 39 57 21 31 996.5 993.2 3.2
20/03:57pm 23.8 19.4 19.3 76 3.0 WSW 41 63 22 34 996.4 993.0 3.2
20/03:30pm 26.0 23.1 19.2 66 4.5 W 33 52 18 28 996.1 992.7 3.2
20/03:00pm 25.3 22.2 19.7 71 3.7 W 35 59 19 32 996.8 993.5 3.2
20/02:50pm 24.8 23.1 19.8 74 3.3 W 28 52 15 28 997.0 993.7 3.2
20/02:31pm 23.8 23.4 20.1 80 2.5 WNW 22 35 12 19 997.2 993.9 3.2
20/02:30pm 23.8 23.5 20.3 81 2.3 WNW 22 35 12 19 997.2 993.9 3.2
20/02:07pm 23.4 22.7 21.8 91 1.1 WNW 28 41 15 22 997.7 994.3 3.2
20/02:03pm 23.3 23.7 22.5 95 0.5 WNW 24 41 13 22 997.6 994.2 3.2
20/02:00pm 23.7 25.1 23.5 99 0.1 WNW 22 33 12 18 997.9 994.6 3.2
20/01:49pm 22.0 22.3 21.5 97 0.3 NW 22 37 12 20 998.1 994.8 3.0
20/01:45pm 22.2 22.1 21.4 95 0.5 NW 24 37 13 20 998.0 994.7 3.0
20/01:30pm 22.2 21.7 21.5 96 0.5 WNW 26 39 14 21 998.1 994.8 3.0
20/01:11pm 22.9 21.2 19.9 83 2.0 WNW 28 41 15 22 998.3 995.0 2.8
20/01:00pm 23.4 22.2 20.0 81 2.3 NW 26 37 14 20 998.4 995.1 2.8
20/12:45pm 23.3 23.0 21.9 92 1.0 NW 26 37 14 20 998.8 995.5 2.8
20/12:30pm 22.0 20.0 20.8 93 0.8 NW 32 43 17 23 998.9 995.6 2.8
20/12:28pm 22.1 20.1 20.7 92 0.9 NW 32 43 17 23 999.1 995.7 2.8
20/12:00pm 22.5 20.8 20.6 89 1.3 NW 30 44 16 24 999.5 996.2 2.8
20/11:30am 20.3 20.4 20.3 100 0.0 NNW 20 35 11 19 999.8 996.5 2.6
20/11:13am 19.6 18.6 19.6 100 0.0 NNW 24 37 13 20 999.9 996.6 2.6
20/11:00am 19.0 18.6 19.0 100 0.0 NW 19 28 10 15 1000.6 997.3 2.6
20/10:45am 18.6 18.8 18.6 100 0.0 NW 15 28 8 15 1001.0 997.7 2.0
20/10:30am 17.5 18.0 17.5 100 0.0 NW 11 17 6 9 1000.8 997.5 1.4
20/10:00am 17.2 16.1 17.2 100 0.0 NNW 19 26 10 14 1000.6 997.3 1.2
20/09:47am 16.9 16.8 16.9 100 0.0 NNW 13 20 7 11 1001.1 997.8 1.2
20/09:30am 16.7 15.7 16.7 100 0.0 N 17 24 9 13 1001.7 998.5 1.2
20/09:11am 16.7 13.9 16.4 98 0.2 N 26 39 14 21 1002.4 999.1 0.4
20/09:00am 17.4 13.3 14.9 85 1.5 N 30 41 16 22 1002.6 999.3 0.0
20/08:44am 18.1 15.5 15.9 87 1.3 NNE 24 33 13 18 1002.2 998.9 0.0
20/08:30am 17.8 15.6 16.0 89 1.1 NNE 22 32 12 17 1002.3 999.0 0.0
20/08:00am 16.3 14.4 15.7 96 0.4 NNE 20 30 11 16 1002.8 999.5 0.0
20/07:30am 16.1 14.3 15.5 96 0.4 NNE 19 28 10 15 1003.8 1000.5 0.0
20/07:00am 15.8 14.0 15.6 99 0.1 N 19 30 10 16 1004.2 1000.9 0.0
20/06:30am 15.5 12.8 15.5 100 0.0 NNE 24 32 13 17 1004.1 1000.8 0.0
20/06:00am 15.4 13.4 15.4 100 0.0 NNE 20 33 11 18 1004.3 1001.0 0.0
20/05:30am 15.3 12.1 15.3 100 0.0 NNE 26 39 14 21 1004.5 1001.3 0.0
20/05:00am 15.3 12.5 15.3 100 0.0 NNE 24 35 13 19 1005.1 1001.9 0.0
20/04:43am 15.3 11.7 15.3 100 0.0 N 28 39 15 21 1005.7 1002.5 0.0
20/04:30am 15.1 - - - - NNE 24 37 13 20 1006.0 1002.8 0.0
20/04:00am 15.0 - - - - NNE 32 44 17 24 1006.1 1002.9 0.0
20/03:30am 15.0 - - - - NNE 30 41 16 22 1007.0 1003.7 0.0
20/03:06am 14.9 - - - - NNE 35 54 19 29 1007.3 1004.1 0.0
20/03:00am 14.9 - - - - NNE 39 54 21 29 1007.2 1004.0 0.0
20/02:51am 14.8 - - - - NNE 35 54 19 29 1007.5 1004.3 0.0
20/02:30am 14.6 - - - - NNE 35 44 19 24 1007.7 1004.5 0.0
20/02:00am 14.5 - - - - NNE 33 41 18 22 1008.8 1005.6 0.0
20/01:30am 14.4 - - - - NNE 33 44 18 24 1009.2 1006.0 0.0
20/01:00am 14.3 - - - - NNE 30 43 16 23 1010.1 1006.9 0.0
20/12:30am 14.4 10.5 14.4 100 0.0 NNE 28 37 15 20 1010.8 1007.6 0.0
20/12:00am 14.4 11.3 14.4 100 0.0 NNE 24 37 13 20 1011.2 1008.1 0.0
 
Date/Time
EDT
Temp
°C
App
Temp
°C
Dew
Point
°C
Rel
Hum
%
Delta-T
°C
Wind Press
QNH
hPa
Press
MSL
hPa
Rain since
9am
mm
Dir  Spd
km/h
Gust
km/h
Spd
kts
Gust
kts
19/11:58pm 14.4 11.3 14.4 100 0.0 NNE 24 37 13 20 1011.2 1008.1 0.0
19/11:51pm 14.4 10.5 14.4 100 0.0 NNE 28 41 15 22 1011.3 1008.2 0.0
19/11:30pm 14.3 11.1 14.3 100 0.0 NNE 24 33 13 18 1011.7 1008.5 0.0
19/11:18pm 14.4 11.3 14.4 100 0.0 NNE 24 30 13 16 1011.8 1008.6 0.0
19/11:00pm 14.5 10.6 14.3 99 0.1 NNE 28 35 15 19 1011.9 1008.7 0.0
19/10:30pm 14.4 11.5 14.1 98 0.2 NNE 22 32 12 17 1012.2 1009.0 0.0
19/10:00pm 14.5 11.2 13.9 96 0.3 NNE 24 35 13 19 1012.4 1009.3 0.0
19/09:30pm 14.7 11.6 13.4 92 0.7 NE 22 28 12 15 1012.5 1009.4 0.0
19/09:00pm 14.9 11.9 12.6 86 1.3 NNE 20 30 11 16 1012.7 1009.6 0.0
19/08:30pm 15.0 11.2 12.3 84 1.5 NNE 24 35 13 19 1012.6 1009.5 0.0
19/08:00pm 15.2 11.7 12.2 82 1.7 NE 22 30 12 16 1012.6 1009.5 0.0
19/07:30pm 15.4 11.9 12.2 81 1.8 NE 22 37 12 20 1012.6 1009.5 0.0
19/07:00pm 15.5 12.5 12.4 82 1.8 NE 20 30 11 16 1012.6 1009.5 0.0
19/06:30pm 15.3 12.2 12.2 82 1.7 NE 20 32 11 17 1012.9 1009.8 0.0
19/06:00pm 15.7 11.9 12.5 81 1.8 NE 24 35 13 19 1012.9 1009.8 0.0
19/05:30pm 15.5 12.1 12.4 82 1.8 NE 22 32 12 17 1013.2 1010.0 0.0
19/05:00pm 15.4 12.4 12.7 84 1.5 ENE 20 28 11 15 1013.7 1010.6 0.0
19/04:30pm 15.4 12.0 12.5 83 1.6 NE 22 30 12 16 1014.0 1010.9 0.0
19/04:00pm 17.5 14.8 13.6 78 2.3 NE 20 30 11 16 1014.2 1011.1 0.0
19/03:30pm 16.6 12.9 12.8 78 2.2 NE 24 33 13 18 1014.5 1011.4 0.0
19/03:00pm 16.5 13.6 13.0 80 2.0 NE 20 28 11 15 1014.9 1011.7 0.0
19/02:30pm 16.0 13.6 14.4 90 0.9 NE 20 26 11 14 1015.2 1012.1 0.0
19/02:26pm 15.6 13.1 14.0 90 0.9 NE 20 26 11 14 1015.2 1012.1 0.0
19/02:04pm 15.1 12.2 14.0 93 0.6 ENE 22 28 12 15 1015.4 1012.3 0.0
19/02:00pm 15.1 12.5 13.8 92 0.8 ENE 20 28 11 15 1015.4 1012.3 0.0
19/01:30pm 15.1 13.5 15.1 100 0.0 E 17 22 9 12 1015.8 1012.7 0.0
19/01:06pm 14.8 12.8 13.8 94 0.6 E 17 22 9 12 1016.0 1012.9 0.0
19/01:00pm 15.0 12.8 13.4 90 0.9 ENE 17 22 9 12 1016.0 1012.9 0.0
19/12:30pm 14.6 12.1 13.5 93 0.6 ENE 19 24 10 13 1016.1 1013.0 0.0
19/12:09pm 14.8 12.3 13.5 92 0.7 ENE 19 26 10 14 1016.5 1013.4 0.0
19/12:00pm 14.7 12.3 13.9 95 0.5 NE 19 26 10 14 1016.5 1013.4 0.0
19/11:30am 13.9 11.1 13.3 96 0.3 ENE 20 28 11 15 1016.7 1013.6 0.0
19/11:28am 13.9 11.1 13.1 95 0.5 ENE 20 28 11 15 1016.7 1013.6 0.0
19/11:00am 14.2 11.5 13.4 95 0.5 NE 20 28 11 15 1016.8 1013.7 0.0
19/10:51am 14.0 11.3 13.5 97 0.3 NE 20 26 11 14 1016.9 1013.8 0.0
19/10:30am 13.6 11.9 13.6 100 0.0 ENE 15 20 8 11 1016.9 1013.8 0.0
19/10:00am 14.0 12.0 13.8 99 0.1 ENE 17 20 9 11 1016.9 1013.8 0.0
19/09:31am 13.9 12.2 13.6 98 0.2 ENE 15 20 8 11 1017.2 1014.1 0.0
19/09:30am 13.8 12.0 13.3 97 0.3 ENE 15 19 8 10 1017.2 1014.1 0.0
19/09:21am 13.8 12.4 13.5 98 0.2 ENE 13 20 7 11 1017.1 1014.0 0.0
19/09:00am 13.5 12.1 13.5 100 0.0 ENE 13 17 7 9 1017.2 1014.1 0.6
19/08:30am 13.1 12.4 13.1 100 0.0 ENE 9 13 5 7 1017.2 1014.1 0.6
19/08:00am 12.9 12.1 12.9 100 0.0 ENE 9 11 5 6 1017.2 1014.1 0.6
19/07:30am 13.0 12.2 12.8 99 0.1 ESE 9 13 5 7 1017.0 1013.9 0.6
19/07:24am 12.9 12.0 12.6 98 0.2 ESE 9 13 5 7 1017.0 1013.9 0.6
19/07:00am 12.9 12.0 12.6 98 0.2 ESE 9 11 5 6 1016.8 1013.7 0.6
19/06:52am 12.8 11.9 12.6 99 0.1 SE 9 11 5 6 1016.6 1013.5 0.6
19/06:50am 12.8 12.3 12.6 99 0.1 SE 7 11 4 6 1016.6 1013.5 0.6
19/06:30am 12.8 12.5 12.6 99 0.1 ESE 6 9 3 5 1016.5 1013.4 0.6
19/06:26am 12.8 12.3 12.6 99 0.1 E 7 9 4 5 1016.5 1013.4 0.6
19/06:00am 12.6 10.9 12.6 100 0.0 ENE 13 15 7 8 1016.1 1013.0 0.6
19/05:39am 12.9 11.3 12.7 99 0.1 ENE 13 17 7 9 1016.1 1013.0 0.6
19/05:30am 13.0 11.8 12.7 98 0.2 E 11 17 6 9 1016.1 1013.0 0.6
19/05:00am 12.7 11.4 12.5 99 0.1 ESE 11 17 6 9 1016.0 1012.9 0.6
19/04:30am 12.8 11.5 12.6 99 0.1 ESE 11 17 6 9 1016.0 1012.9 0.6
19/04:00am 12.7 11.8 12.7 100 0.0 SE 9 15 5 8 1016.0 1012.9 0.6
19/03:33am 12.8 10.1 12.8 100 0.0 SE 19 28 10 15 1016.0 1012.9 0.6
19/03:30am 12.8 10.1 12.8 100 0.0 SE 19 30 10 16 1016.0 1012.9 0.6
19/03:16am 12.9 11.0 12.9 100 0.0 SE 15 20 8 11 1016.0 1012.9 0.6
19/03:08am 12.9 10.6 12.9 100 0.0 ESE 17 24 9 13 1016.1 1013.0 0.6
19/03:00am 12.9 - - - - SE 15 20 8 11 1016.1 1013.0 0.6
19/02:30am 12.9 11.3 12.9 100 0.0 SE 13 19 7 10 1016.9 1013.8 0.6
19/02:07am 12.9 11.3 12.9 100 0.0 SE 13 20 7 11 1017.1 1014.0 0.6
19/02:00am 12.9 10.6 12.9 100 0.0 SE 17 22 9 12 1017.2 1014.1 0.6
19/01:54am 12.9 11.0 12.9 100 0.0 SE 15 22 8 12 1017.1 1014.0 0.6
19/01:30am 12.9 10.0 12.9 100 0.0 SE 20 28 11 15 1017.3 1014.2 0.6
19/01:00am 13.2 10.6 13.2 100 0.0 ESE 19 24 10 13 1017.6 1014.6 0.6
19/12:46am 13.3 11.1 13.3 100 0.0 ESE 17 26 9 14 1017.7 1014.7 0.6
19/12:42am 13.3 10.7 13.3 100 0.0 ESE 19 30 10 16 1017.9 1014.8 0.6
19/12:30am 13.3 10.7 13.3 100 0.0 ESE 19 26 10 14 1017.9 1014.8 0.6
19/12:00am 13.5 - - - - SE 17 24 9 13 1018.0 1014.9 0.6
 
Date/Time
EDT
Temp
°C
App
Temp
°C
Dew
Point
°C
Rel
Hum
%
Delta-T
°C
Wind Press
QNH
hPa
Press
MSL
hPa
Rain since
9am
mm
Dir  Spd
km/h
Gust
km/h
Spd
kts
Gust
kts
18/11:30pm 14.1 - - - - SE 15 20 8 11 1018.0 1014.9 0.4
18/11:00pm 14.2 11.4 14.2 100 0.0 SE 22 33 12 18 1017.6 1014.6 0.2
18/10:30pm 14.9 13.6 14.9 100 0.0 ESE 15 22 8 12 1017.7 1014.7 0.2
18/10:14pm 15.0 13.0 15.0 100 0.0 ESE 19 26 10 14 1017.4 1014.3 0.0
18/10:00pm 15.0 12.4 15.0 100 0.0 ESE 22 30 12 16 1017.3 1014.2 0.0
18/09:52pm 15.1 13.2 15.1 100 0.0 ESE 19 28 10 15 1017.2 1014.1 0.0
18/09:30pm 15.1 13.9 15.1 100 0.0 SE 15 19 8 10 1016.9 1013.8 0.0
18/09:07pm 15.4 13.5 15.2 99 0.1 ESE 19 24 10 13 1016.3 1013.2 0.0
18/09:06pm 15.4 13.5 15.1 98 0.2 ESE 19 24 10 13 1016.3 1013.2 0.0
18/09:04pm 15.5 14.0 15.2 98 0.2 ESE 17 20 9 11 1016.1 1013.0 0.0
18/09:00pm 15.5 13.5 15.0 97 0.3 ESE 19 22 10 12 1016.0 1012.9 0.0
18/08:43pm 15.6 14.0 15.1 97 0.3 ESE 17 22 9 12 1015.8 1012.7 0.0
18/08:30pm 15.6 14.0 15.1 97 0.3 ESE 17 22 9 12 1015.4 1012.3 0.0
18/08:21pm 15.6 14.0 15.1 97 0.3 SE 17 26 9 14 1015.7 1012.6 0.0
18/08:05pm 15.6 13.7 15.3 98 0.2 SE 19 28 10 15 1015.4 1012.3 0.0
18/08:00pm 15.7 13.9 15.4 98 0.2 SE 19 28 10 15 1015.3 1012.2 0.0
18/07:32pm 15.8 14.0 15.5 98 0.2 SE 19 28 10 15 1014.9 1011.7 0.0
18/07:30pm 15.8 13.8 15.5 98 0.2 SE 20 32 11 17 1014.8 1011.6 0.0
18/07:10pm 16.0 14.2 15.5 97 0.3 ESE 19 26 10 14 1014.4 1011.3 0.0
18/07:00pm 16.1 14.3 15.5 96 0.4 SE 19 30 10 16 1014.3 1011.2 0.0
18/06:30pm 16.1 12.7 14.8 92 0.8 SE 26 37 14 20 1013.2 1010.0 0.0
18/06:08pm 16.8 12.6 14.6 87 1.3 SE 30 37 16 20 1012.4 1009.3 0.0
18/06:00pm 17.5 14.6 15.1 86 1.4 SE 24 37 13 20 1012.2 1009.0 0.0
18/05:30pm 18.5 14.1 15.2 81 2.0 SE 32 43 17 23 1011.6 1008.4 0.0
18/05:03pm 21.3 17.0 15.8 71 3.4 SE 33 43 18 23 1011.1 1008.0 0.0
18/05:00pm 20.8 16.5 15.8 73 3.1 SE 33 43 18 23 1010.9 1007.7 0.0
18/04:30pm 22.6 18.4 15.7 65 4.3 SE 32 41 17 22 1010.6 1007.4 0.0
18/04:00pm 25.3 21.5 16.7 59 5.5 SSE 32 43 17 23 1010.2 1007.0 0.0
18/03:30pm 26.0 20.8 12.8 44 7.9 SSE 32 41 17 22 1010.0 1006.8 0.0
18/03:00pm 27.2 22.5 14.9 47 7.7 SSE 33 43 18 23 1009.8 1006.7 0.0
18/02:30pm 28.1 22.7 14.0 42 8.7 SE 35 44 19 24 1009.3 1006.1 0.0
18/02:00pm 30.1 26.6 12.1 33 10.9 SSE 22 39 12 21 1009.2 1006.0 0.0
18/01:57pm 30.1 26.3 11.1 31 11.3 SSE 22 35 12 19 1009.2 1006.0 0.0
18/01:46pm 35.5 29.6 11.2 23 14.7 SW 33 57 18 31 1009.0 1005.8 0.0
18/01:30pm 37.3 28.6 4.3 13 18.2 WSW 39 59 21 32 1008.7 1005.5 0.0

Other Formats:

Comma delimited format used in spreadsheet applications
http://www.bom.gov.au/fwo/IDN60801/IDN60801.94746.axf

JavaScript Object Notation format (JSON) in row-major order
http://www.bom.gov.au/fwo/IDN60801/IDN60801.94746.json